sensor_id;sensor_type;location;lat;lon;timestamp;temperature;humidity
39033;DHT22;24794;51.982;5.878;2024-03-23T00:52:26;9.00;99.90
39033;DHT22;24794;51.982;5.878;2024-03-23T00:53:27;8.90;99.90
39033;DHT22;24794;51.982;5.878;2024-03-23T00:54:27;9.00;99.90
39033;DHT22;24794;51.982;5.878;2024-03-23T00:55:28;9.00;99.90
39033;DHT22;24794;51.982;5.878;2024-03-23T00:56:29;8.90;99.90
39033;DHT22;24794;51.982;5.878;2024-03-23T00:57:29;8.90;99.90
39033;DHT22;24794;51.982;5.878;2024-03-23T00:58:30;8.90;99.90
39033;DHT22;24794;51.982;5.878;2024-03-23T00:59:31;9.00;99.90
39033;DHT22;24794;51.982;5.878;2024-03-23T01:00:31;8.90;99.90
39033;DHT22;24794;51.982;5.878;2024-03-23T01:01:32;9.00;99.90
39033;DHT22;24794;51.982;5.878;2024-03-23T01:02:33;8.90;99.90
39033;DHT22;24794;51.982;5.878;2024-03-23T01:03:33;9.00;99.90
39033;DHT22;24794;51.982;5.878;2024-03-23T01:04:34;8.90;99.90
39033;DHT22;24794;51.982;5.878;2024-03-23T01:05:34;8.90;99.90
39033;DHT22;24794;51.982;5.878;2024-03-23T01:06:35;8.90;99.90
39033;DHT22;24794;51.982;5.878;2024-03-23T01:07:35;9.00;99.90
39033;DHT22;24794;51.982;5.878;2024-03-23T01:08:36;8.90;99.90
39033;DHT22;24794;51.982;5.878;2024-03-23T01:09:36;9.00;99.90
39033;DHT22;24794;51.982;5.878;2024-03-23T01:10:39;8.90;99.90
39033;DHT22;24794;51.982;5.878;2024-03-23T01:11:40;8.90;99.90
39033;DHT22;24794;51.982;5.878;2024-03-23T01:12:40;8.90;99.90
39033;DHT22;24794;51.982;5.878;2024-03-23T01:13:41;8.90;99.90
39033;DHT22;24794;51.982;5.878;2024-03-23T01:14:41;8.90;99.90
39033;DHT22;24794;51.982;5.878;2024-03-23T01:15:48;8.90;99.90
39033;DHT22;24794;51.982;5.878;2024-03-23T01:16:49;8.90;99.90
39033;DHT22;24794;51.982;5.878;2024-03-23T01:17:49;8.90;99.90
39033;DHT22;24794;51.982;5.878;2024-03-23T01:18:50;8.90;99.90
39033;DHT22;24794;51.982;5.878;2024-03-23T01:19:50;8.90;99.90
39033;DHT22;24794;51.982;5.878;2024-03-23T01:20:51;8.90;99.90
39033;DHT22;24794;51.982;5.878;2024-03-23T01:21:51;8.80;99.90
39033;DHT22;24794;51.982;5.878;2024-03-23T01:22:52;8.80;99.90
39033;DHT22;24794;51.982;5.878;2024-03-23T01:23:52;8.80;99.90
39033;DHT22;24794;51.982;5.878;2024-03-23T01:24:53;8.80;99.90
39033;DHT22;24794;51.982;5.878;2024-03-23T01:25:54;8.80;99.90
39033;DHT22;24794;51.982;5.878;2024-03-23T01:26:55;8.80;99.90
39033;DHT22;24794;51.982;5.878;2024-03-23T01:27:55;8.80;99.90
39033;DHT22;24794;51.982;5.878;2024-03-23T01:28:56;8.80;99.90
39033;DHT22;24794;51.982;5.878;2024-03-23T01:29:56;8.80;99.90
39033;DHT22;24794;51.982;5.878;2024-03-23T01:30:57;8.80;99.90
39033;DHT22;24794;51.982;5.878;2024-03-23T01:31:57;8.80;99.90
39033;DHT22;24794;51.982;5.878;2024-03-23T01:32:58;8.80;99.90
39033;DHT22;24794;51.982;5.878;2024-03-23T01:33:58;8.80;99.90
39033;DHT22;24794;51.982;5.878;2024-03-23T01:34:59;8.80;99.90
39033;DHT22;24794;51.982;5.878;2024-03-23T01:35:59;8.80;99.90
39033;DHT22;24794;51.982;5.878;2024-03-23T01:37:00;8.80;99.90
39033;DHT22;24794;51.982;5.878;2024-03-23T01:38:01;8.80;99.90
39033;DHT22;24794;51.982;5.878;2024-03-23T01:39:01;8.80;99.90
39033;DHT22;24794;51.982;5.878;2024-03-23T01:40:02;8.80;99.90
39033;DHT22;24794;51.982;5.878;2024-03-23T01:41:04;8.80;99.90
39033;DHT22;24794;51.982;5.878;2024-03-23T01:42:05;8.80;99.90
39033;DHT22;24794;51.982;5.878;2024-03-23T01:43:08;8.80;99.90
39033;DHT22;24794;51.982;5.878;2024-03-23T01:44:09;8.80;99.90
39033;DHT22;24794;51.982;5.878;2024-03-23T01:45:09;8.80;99.90
39033;DHT22;24794;51.982;5.878;2024-03-23T01:46:10;8.80;99.90
39033;DHT22;24794;51.982;5.878;2024-03-23T01:47:10;8.80;99.90
39033;DHT22;24794;51.982;5.878;2024-03-23T01:48:11;8.80;99.90
39033;DHT22;24794;51.982;5.878;2024-03-23T01:49:12;8.80;99.90
39033;DHT22;24794;51.982;5.878;2024-03-23T01:50:14;8.80;99.90
39033;DHT22;24794;51.982;5.878;2024-03-23T01:51:14;8.80;99.90
39033;DHT22;24794;51.982;5.878;2024-03-23T01:52:15;8.70;99.90
39033;DHT22;24794;51.982;5.878;2024-03-23T01:53:16;8.70;99.90
39033;DHT22;24794;51.982;5.878;2024-03-23T01:54:22;8.80;99.90
39033;DHT22;24794;51.982;5.878;2024-03-23T01:55:23;8.70;99.90
39033;DHT22;24794;51.982;5.878;2024-03-23T01:56:24;8.80;99.90
39033;DHT22;24794;51.982;5.878;2024-03-23T01:57:24;8.80;99.90
39033;DHT22;24794;51.982;5.878;2024-03-23T01:58:25;8.70;99.90
39033;DHT22;24794;51.982;5.878;2024-03-23T01:59:25;8.70;99.90
39033;DHT22;24794;51.982;5.878;2024-03-23T02:00:26;8.70;99.90
39033;DHT22;24794;51.982;5.878;2024-03-23T02:01:28;8.70;99.90
39033;DHT22;24794;51.982;5.878;2024-03-23T02:02:28;8.70;99.90
39033;DHT22;24794;51.982;5.878;2024-03-23T02:03:29;8.70;99.90
39033;DHT22;24794;51.982;5.878;2024-03-23T02:04:30;8.70;99.90
39033;DHT22;24794;51.982;5.878;2024-03-23T02:05:30;8.70;99.90
39033;DHT22;24794;51.982;5.878;2024-03-23T02:06:31;8.70;99.90
39033;DHT22;24794;51.982;5.878;2024-03-23T02:07:31;8.70;99.90
39033;DHT22;24794;51.982;5.878;2024-03-23T02:08:32;8.70;99.90
39033;DHT22;24794;51.982;5.878;2024-03-23T02:09:33;8.70;99.90
39033;DHT22;24794;51.982;5.878;2024-03-23T02:10:33;8.70;99.90
39033;DHT22;24794;51.982;5.878;2024-03-23T02:11:34;8.70;99.90
39033;DHT22;24794;51.982;5.878;2024-03-23T02:12:34;8.70;99.90
39033;DHT22;24794;51.982;5.878;2024-03-23T02:13:35;8.70;99.90
39033;DHT22;24794;51.982;5.878;2024-03-23T02:14:35;8.70;99.90
39033;DHT22;24794;51.982;5.878;2024-03-23T02:15:36;8.70;99.90
39033;DHT22;24794;51.982;5.878;2024-03-23T02:16:37;8.70;99.90
39033;DHT22;24794;51.982;5.878;2024-03-23T02:17:38;8.70;99.90
39033;DHT22;24794;51.982;5.878;2024-03-23T02:18:38;8.70;99.90
39033;DHT22;24794;51.982;5.878;2024-03-23T02:19:39;8.70;99.90
39033;DHT22;24794;51.982;5.878;2024-03-23T02:20:39;8.70;99.90
39033;DHT22;24794;51.982;5.878;2024-03-23T02:21:40;8.70;99.90
39033;DHT22;24794;51.982;5.878;2024-03-23T02:22:40;8.70;99.90
39033;DHT22;24794;51.982;5.878;2024-03-23T02:23:41;8.70;99.90
39033;DHT22;24794;51.982;5.878;2024-03-23T02:24:42;8.70;99.90
39033;DHT22;24794;51.982;5.878;2024-03-23T02:25:42;8.70;99.90
39033;DHT22;24794;51.982;5.878;2024-03-23T02:26:43;8.70;99.90
39033;DHT22;24794;51.982;5.878;2024-03-23T02:27:43;8.70;99.90
39033;DHT22;24794;51.982;5.878;2024-03-23T02:28:44;8.80;99.90
39033;DHT22;24794;51.982;5.878;2024-03-23T02:29:44;8.70;99.90
39033;DHT22;24794;51.982;5.878;2024-03-23T02:30:45;8.80;99.90
39033;DHT22;24794;51.982;5.878;2024-03-23T02:31:46;8.80;99.90
39033;DHT22;24794;51.982;5.878;2024-03-23T02:32:46;8.80;99.90
39033;DHT22;24794;51.982;5.878;2024-03-23T02:33:47;8.80;99.90
39033;DHT22;24794;51.982;5.878;2024-03-23T02:34:47;8.80;99.90
39033;DHT22;24794;51.982;5.878;2024-03-23T02:35:49;8.80;99.90
39033;DHT22;24794;51.982;5.878;2024-03-23T02:36:49;8.80;99.90
39033;DHT22;24794;51.982;5.878;2024-03-23T02:37:50;8.80;99.90
39033;DHT22;24794;51.982;5.878;2024-03-23T02:38:50;8.80;99.90
39033;DHT22;24794;51.982;5.878;2024-03-23T02:39:51;8.70;99.90
39033;DHT22;24794;51.982;5.878;2024-03-23T02:40:51;8.70;99.90
39033;DHT22;24794;51.982;5.878;2024-03-23T02:41:52;8.70;99.90
39033;DHT22;24794;51.982;5.878;2024-03-23T02:42:52;8.70;99.90
39033;DHT22;24794;51.982;5.878;2024-03-23T02:43:53;8.70;99.90
39033;DHT22;24794;51.982;5.878;2024-03-23T02:44:54;8.70;99.90
39033;DHT22;24794;51.982;5.878;2024-03-23T02:45:54;8.70;99.90
39033;DHT22;24794;51.982;5.878;2024-03-23T02:46:55;8.70;99.90
39033;DHT22;24794;51.982;5.878;2024-03-23T02:47:55;8.70;99.90
39033;DHT22;24794;51.982;5.878;2024-03-23T02:48:57;8.70;99.90
39033;DHT22;24794;51.982;5.878;2024-03-23T02:49:57;8.70;99.90
39033;DHT22;24794;51.982;5.878;2024-03-23T02:50:58;8.70;99.90
39033;DHT22;24794;51.982;5.878;2024-03-23T02:51:58;8.70;99.90
39033;DHT22;24794;51.982;5.878;2024-03-23T02:52:59;8.70;99.90
39033;DHT22;24794;51.982;5.878;2024-03-23T02:53:59;8.70;99.90
39033;DHT22;24794;51.982;5.878;2024-03-23T02:55:00;8.70;99.90
39033;DHT22;24794;51.982;5.878;2024-03-23T02:56:02;8.70;99.90
39033;DHT22;24794;51.982;5.878;2024-03-23T02:57:03;8.60;99.90
39033;DHT22;24794;51.982;5.878;2024-03-23T02:58:04;8.60;99.90
39033;DHT22;24794;51.982;5.878;2024-03-23T02:59:05;8.60;99.90
39033;DHT22;24794;51.982;5.878;2024-03-23T03:00:06;8.60;99.90
39033;DHT22;24794;51.982;5.878;2024-03-23T03:01:07;8.50;99.90
39033;DHT22;24794;51.982;5.878;2024-03-23T03:02:08;8.50;99.90
39033;DHT22;24794;51.982;5.878;2024-03-23T03:03:08;8.50;99.90
39033;DHT22;24794;51.982;5.878;2024-03-23T03:04:09;8.50;99.90
39033;DHT22;24794;51.982;5.878;2024-03-23T03:05:10;8.40;99.90
39033;DHT22;24794;51.982;5.878;2024-03-23T03:06:11;8.40;99.90
39033;DHT22;24794;51.982;5.878;2024-03-23T03:07:12;8.40;99.90
39033;DHT22;24794;51.982;5.878;2024-03-23T03:08:12;8.40;99.90
39033;DHT22;24794;51.982;5.878;2024-03-23T03:09:13;8.40;99.90
39033;DHT22;24794;51.982;5.878;2024-03-23T03:10:13;8.40;99.90
39033;DHT22;24794;51.982;5.878;2024-03-23T03:11:14;8.40;99.90
39033;DHT22;24794;51.982;5.878;2024-03-23T03:12:14;8.40;99.90
39033;DHT22;24794;51.982;5.878;2024-03-23T03:13:15;8.40;99.90
39033;DHT22;24794;51.982;5.878;2024-03-23T03:14:15;8.40;99.90
39033;DHT22;24794;51.982;5.878;2024-03-23T03:15:16;8.40;99.90
39033;DHT22;24794;51.982;5.878;2024-03-23T03:16:16;8.40;99.90
39033;DHT22;24794;51.982;5.878;2024-03-23T03:17:17;8.30;99.90
39033;DHT22;24794;51.982;5.878;2024-03-23T03:18:18;8.30;99.90
39033;DHT22;24794;51.982;5.878;2024-03-23T03:19:18;8.30;99.90
39033;DHT22;24794;51.982;5.878;2024-03-23T03:20:19;8.30;99.90
39033;DHT22;24794;51.982;5.878;2024-03-23T03:21:19;8.30;99.90
39033;DHT22;24794;51.982;5.878;2024-03-23T03:22:20;8.30;99.90
39033;DHT22;24794;51.982;5.878;2024-03-23T03:23:20;8.30;99.90
39033;DHT22;24794;51.982;5.878;2024-03-23T03:24:21;8.30;99.90
39033;DHT22;24794;51.982;5.878;2024-03-23T03:25:21;8.30;99.90
39033;DHT22;24794;51.982;5.878;2024-03-23T03:26:22;8.30;99.90
39033;DHT22;24794;51.982;5.878;2024-03-23T03:27:23;8.30;99.90
39033;DHT22;24794;51.982;5.878;2024-03-23T03:28:24;8.30;99.90
39033;DHT22;24794;51.982;5.878;2024-03-23T03:29:26;8.20;99.90
39033;DHT22;24794;51.982;5.878;2024-03-23T03:30:34;8.30;99.90
39033;DHT22;24794;51.982;5.878;2024-03-23T03:31:34;8.20;99.90
39033;DHT22;24794;51.982;5.878;2024-03-23T03:32:35;8.30;99.90
39033;DHT22;24794;51.982;5.878;2024-03-23T03:33:35;8.20;99.90
39033;DHT22;24794;51.982;5.878;2024-03-23T03:34:36;8.20;99.90
39033;DHT22;24794;51.982;5.878;2024-03-23T03:35:37;8.20;99.90
39033;DHT22;24794;51.982;5.878;2024-03-23T03:36:38;8.20;99.90
39033;DHT22;24794;51.982;5.878;2024-03-23T03:37:38;8.20;99.90
39033;DHT22;24794;51.982;5.878;2024-03-23T03:38:39;8.20;99.90
39033;DHT22;24794;51.982;5.878;2024-03-23T03:39:39;8.20;99.90
39033;DHT22;24794;51.982;5.878;2024-03-23T03:40:41;8.20;99.90
39033;DHT22;24794;51.982;5.878;2024-03-23T03:41:42;8.20;99.90
39033;DHT22;24794;51.982;5.878;2024-03-23T03:42:42;8.20;99.90
39033;DHT22;24794;51.982;5.878;2024-03-23T03:43:43;8.20;99.90
39033;DHT22;24794;51.982;5.878;2024-03-23T03:44:43;8.20;99.90
39033;DHT22;24794;51.982;5.878;2024-03-23T03:45:54;8.20;99.90
39033;DHT22;24794;51.982;5.878;2024-03-23T03:46:55;8.20;99.90
39033;DHT22;24794;51.982;5.878;2024-03-23T03:47:55;8.20;99.90
39033;DHT22;24794;51.982;5.878;2024-03-23T03:48:56;8.20;99.90
39033;DHT22;24794;51.982;5.878;2024-03-23T03:49:56;8.20;99.90
39033;DHT22;24794;51.982;5.878;2024-03-23T03:50:57;8.20;99.90
39033;DHT22;24794;51.982;5.878;2024-03-23T03:51:57;8.20;99.90
39033;DHT22;24794;51.982;5.878;2024-03-23T03:52:58;8.20;99.90
39033;DHT22;24794;51.982;5.878;2024-03-23T03:53:58;8.20;99.90
39033;DHT22;24794;51.982;5.878;2024-03-23T03:55:03;8.20;99.90
39033;DHT22;24794;51.982;5.878;2024-03-23T03:56:03;8.20;99.90
39033;DHT22;24794;51.982;5.878;2024-03-23T03:57:04;8.20;99.90
39033;DHT22;24794;51.982;5.878;2024-03-23T03:58:05;8.10;99.90
39033;DHT22;24794;51.982;5.878;2024-03-23T03:59:05;8.10;99.90
39033;DHT22;24794;51.982;5.878;2024-03-23T04:00:06;8.10;99.90
39033;DHT22;24794;51.982;5.878;2024-03-23T04:01:07;8.10;99.90
39033;DHT22;24794;51.982;5.878;2024-03-23T04:02:07;8.10;99.90
39033;DHT22;24794;51.982;5.878;2024-03-23T04:03:08;8.10;99.90
39033;DHT22;24794;51.982;5.878;2024-03-23T04:04:09;8.10;99.90
39033;DHT22;24794;51.982;5.878;2024-03-23T04:05:09;8.10;99.90
39033;DHT22;24794;51.982;5.878;2024-03-23T04:06:10;8.10;99.90
39033;DHT22;24794;51.982;5.878;2024-03-23T04:07:10;8.10;99.90
39033;DHT22;24794;51.982;5.878;2024-03-23T04:08:11;8.10;99.90
39033;DHT22;24794;51.982;5.878;2024-03-23T04:09:11;8.10;99.90
39033;DHT22;24794;51.982;5.878;2024-03-23T04:10:12;8.20;99.90
39033;DHT22;24794;51.982;5.878;2024-03-23T04:11:13;8.20;99.90
39033;DHT22;24794;51.982;5.878;2024-03-23T04:12:13;8.10;99.90
39033;DHT22;24794;51.982;5.878;2024-03-23T04:13:14;8.10;99.90
39033;DHT22;24794;51.982;5.878;2024-03-23T04:14:15;8.10;99.90
39033;DHT22;24794;51.982;5.878;2024-03-23T04:15:15;8.10;99.90
39033;DHT22;24794;51.982;5.878;2024-03-23T04:16:29;8.10;99.90
39033;DHT22;24794;51.982;5.878;2024-03-23T04:17:30;8.10;99.90
39033;DHT22;24794;51.982;5.878;2024-03-23T04:18:32;8.10;99.90
39033;DHT22;24794;51.982;5.878;2024-03-23T04:19:32;8.10;99.90
39033;DHT22;24794;51.982;5.878;2024-03-23T04:20:33;8.10;99.90
39033;DHT22;24794;51.982;5.878;2024-03-23T04:21:34;8.10;99.90
39033;DHT22;24794;51.982;5.878;2024-03-23T04:22:35;8.10;99.90
39033;DHT22;24794;51.982;5.878;2024-03-23T04:23:35;8.10;99.90
39033;DHT22;24794;51.982;5.878;2024-03-23T04:24:36;8.10;99.90
39033;DHT22;24794;51.982;5.878;2024-03-23T04:25:36;8.10;99.90
39033;DHT22;24794;51.982;5.878;2024-03-23T04:26:43;8.10;99.90
39033;DHT22;24794;51.982;5.878;2024-03-23T04:27:44;8.10;99.90
39033;DHT22;24794;51.982;5.878;2024-03-23T04:28:44;8.10;99.90
39033;DHT22;24794;51.982;5.878;2024-03-23T04:29:51;8.10;99.90
39033;DHT22;24794;51.982;5.878;2024-03-23T04:30:53;8.10;99.90
39033;DHT22;24794;51.982;5.878;2024-03-23T04:31:53;8.10;99.90
39033;DHT22;24794;51.982;5.878;2024-03-23T04:32:54;8.10;99.90
39033;DHT22;24794;51.982;5.878;2024-03-23T04:33:54;8.00;99.90
39033;DHT22;24794;51.982;5.878;2024-03-23T04:34:55;8.00;99.90
39033;DHT22;24794;51.982;5.878;2024-03-23T04:35:56;8.10;99.90
39033;DHT22;24794;51.982;5.878;2024-03-23T04:36:57;8.00;99.90
39033;DHT22;24794;51.982;5.878;2024-03-23T04:37:57;8.00;99.90
39033;DHT22;24794;51.982;5.878;2024-03-23T04:38:59;8.10;99.90
39033;DHT22;24794;51.982;5.878;2024-03-23T04:40:04;8.10;99.90
39033;DHT22;24794;51.982;5.878;2024-03-23T04:41:05;8.10;99.90
39033;DHT22;24794;51.982;5.878;2024-03-23T04:42:05;8.00;99.90
39033;DHT22;24794;51.982;5.878;2024-03-23T04:43:06;8.00;99.90
39033;DHT22;24794;51.982;5.878;2024-03-23T04:44:07;8.00;99.90
39033;DHT22;24794;51.982;5.878;2024-03-23T04:45:08;8.00;99.90
39033;DHT22;24794;51.982;5.878;2024-03-23T04:46:08;8.00;99.90
39033;DHT22;24794;51.982;5.878;2024-03-23T04:47:09;8.00;99.90
39033;DHT22;24794;51.982;5.878;2024-03-23T04:48:09;8.00;99.90
39033;DHT22;24794;51.982;5.878;2024-03-23T04:49:10;8.00;99.90
39033;DHT22;24794;51.982;5.878;2024-03-23T04:50:10;7.90;99.90
39033;DHT22;24794;51.982;5.878;2024-03-23T04:51:11;7.90;99.90
39033;DHT22;24794;51.982;5.878;2024-03-23T04:52:14;7.90;99.90
39033;DHT22;24794;51.982;5.878;2024-03-23T04:53:16;7.90;99.90
39033;DHT22;24794;51.982;5.878;2024-03-23T04:54:16;7.90;99.90
39033;DHT22;24794;51.982;5.878;2024-03-23T04:55:17;7.90;99.90
39033;DHT22;24794;51.982;5.878;2024-03-23T04:56:17;7.80;99.90
39033;DHT22;24794;51.982;5.878;2024-03-23T04:57:18;7.80;99.90
39033;DHT22;24794;51.982;5.878;2024-03-23T04:58:19;7.80;99.90
39033;DHT22;24794;51.982;5.878;2024-03-23T04:59:19;7.80;99.90
39033;DHT22;24794;51.982;5.878;2024-03-23T05:00:20;7.80;99.90
39033;DHT22;24794;51.982;5.878;2024-03-23T05:01:21;7.80;99.90
39033;DHT22;24794;51.982;5.878;2024-03-23T05:02:22;7.70;99.90
39033;DHT22;24794;51.982;5.878;2024-03-23T05:03:23;7.70;99.90
39033;DHT22;24794;51.982;5.878;2024-03-23T05:04:24;7.70;99.90
39033;DHT22;24794;51.982;5.878;2024-03-23T05:05:24;7.70;99.90
39033;DHT22;24794;51.982;5.878;2024-03-23T05:06:25;7.70;99.90
39033;DHT22;24794;51.982;5.878;2024-03-23T05:07:26;7.70;99.90
39033;DHT22;24794;51.982;5.878;2024-03-23T05:08:26;7.60;99.90
39033;DHT22;24794;51.982;5.878;2024-03-23T05:09:27;7.60;99.90
39033;DHT22;24794;51.982;5.878;2024-03-23T05:10:30;7.60;99.90
39033;DHT22;24794;51.982;5.878;2024-03-23T05:11:33;7.60;99.90
39033;DHT22;24794;51.982;5.878;2024-03-23T05:12:34;7.50;99.90
39033;DHT22;24794;51.982;5.878;2024-03-23T05:13:34;7.50;99.90
39033;DHT22;24794;51.982;5.878;2024-03-23T05:14:35;7.50;99.90
39033;DHT22;24794;51.982;5.878;2024-03-23T05:15:35;7.50;99.90
39033;DHT22;24794;51.982;5.878;2024-03-23T05:16:36;7.50;99.90
39033;DHT22;24794;51.982;5.878;2024-03-23T05:17:37;7.40;99.90
39033;DHT22;24794;51.982;5.878;2024-03-23T05:18:38;7.40;99.90
39033;DHT22;24794;51.982;5.878;2024-03-23T05:19:39;7.40;99.90
39033;DHT22;24794;51.982;5.878;2024-03-23T05:20:39;7.40;99.90
39033;DHT22;24794;51.982;5.878;2024-03-23T05:21:40;7.40;99.90
39033;DHT22;24794;51.982;5.878;2024-03-23T05:22:40;7.30;99.90
39033;DHT22;24794;51.982;5.878;2024-03-23T05:23:41;7.30;99.90
39033;DHT22;24794;51.982;5.878;2024-03-23T05:24:45;7.30;99.90
39033;DHT22;24794;51.982;5.878;2024-03-23T05:25:45;7.30;99.90
39033;DHT22;24794;51.982;5.878;2024-03-23T05:26:46;7.30;99.90
39033;DHT22;24794;51.982;5.878;2024-03-23T05:27:47;7.20;99.90
39033;DHT22;24794;51.982;5.878;2024-03-23T05:28:47;7.20;99.90
39033;DHT22;24794;51.982;5.878;2024-03-23T05:29:48;7.20;99.90
39033;DHT22;24794;51.982;5.878;2024-03-23T05:30:52;7.20;99.90
39033;DHT22;24794;51.982;5.878;2024-03-23T05:31:53;7.20;99.90
39033;DHT22;24794;51.982;5.878;2024-03-23T05:32:56;7.20;99.90
39033;DHT22;24794;51.982;5.878;2024-03-23T05:33:57;7.10;99.90
39033;DHT22;24794;51.982;5.878;2024-03-23T05:34:58;7.10;99.90
39033;DHT22;24794;51.982;5.878;2024-03-23T05:36:00;7.10;99.90
39033;DHT22;24794;51.982;5.878;2024-03-23T05:37:00;7.10;99.90
39033;DHT22;24794;51.982;5.878;2024-03-23T05:38:01;7.10;99.90
39033;DHT22;24794;51.982;5.878;2024-03-23T05:39:03;7.10;99.90
39033;DHT22;24794;51.982;5.878;2024-03-23T05:40:04;7.10;99.90
39033;DHT22;24794;51.982;5.878;2024-03-23T05:41:04;7.00;99.90
39033;DHT22;24794;51.982;5.878;2024-03-23T05:42:05;7.00;99.90
39033;DHT22;24794;51.982;5.878;2024-03-23T05:43:06;7.00;99.90
39033;DHT22;24794;51.982;5.878;2024-03-23T05:44:07;7.00;99.90
39033;DHT22;24794;51.982;5.878;2024-03-23T05:45:08;7.00;99.90
39033;DHT22;24794;51.982;5.878;2024-03-23T05:46:09;7.00;99.90
39033;DHT22;24794;51.982;5.878;2024-03-23T05:47:09;7.00;99.90
39033;DHT22;24794;51.982;5.878;2024-03-23T05:48:10;6.90;99.90
39033;DHT22;24794;51.982;5.878;2024-03-23T05:49:10;6.90;99.90
39033;DHT22;24794;51.982;5.878;2024-03-23T05:50:11;6.90;99.90
39033;DHT22;24794;51.982;5.878;2024-03-23T05:51:13;6.90;99.90
39033;DHT22;24794;51.982;5.878;2024-03-23T05:52:13;6.90;99.90
39033;DHT22;24794;51.982;5.878;2024-03-23T05:53:15;7.00;99.90
39033;DHT22;24794;51.982;5.878;2024-03-23T05:54:16;6.90;99.90
39033;DHT22;24794;51.982;5.878;2024-03-23T05:55:16;7.00;99.90
39033;DHT22;24794;51.982;5.878;2024-03-23T05:56:19;6.90;99.90
39033;DHT22;24794;51.982;5.878;2024-03-23T05:57:20;6.90;99.90
39033;DHT22;24794;51.982;5.878;2024-03-23T05:58:20;6.90;99.90
39033;DHT22;24794;51.982;5.878;2024-03-23T05:59:21;6.90;99.90
39033;DHT22;24794;51.982;5.878;2024-03-23T06:00:21;6.90;99.90
39033;DHT22;24794;51.982;5.878;2024-03-23T06:01:22;6.80;99.90
39033;DHT22;24794;51.982;5.878;2024-03-23T06:02:23;6.90;99.90
39033;DHT22;24794;51.982;5.878;2024-03-23T06:03:24;6.90;99.90
39033;DHT22;24794;51.982;5.878;2024-03-23T06:04:25;6.80;99.90
39033;DHT22;24794;51.982;5.878;2024-03-23T06:05:26;6.80;99.90
39033;DHT22;24794;51.982;5.878;2024-03-23T06:06:26;6.80;99.90
39033;DHT22;24794;51.982;5.878;2024-03-23T06:07:28;6.80;99.90
39033;DHT22;24794;51.982;5.878;2024-03-23T06:08:28;6.80;99.90
39033;DHT22;24794;51.982;5.878;2024-03-23T06:09:29;6.80;99.90
39033;DHT22;24794;51.982;5.878;2024-03-23T06:10:31;6.80;99.90
39033;DHT22;24794;51.982;5.878;2024-03-23T06:11:32;6.80;99.90
39033;DHT22;24794;51.982;5.878;2024-03-23T06:12:33;6.70;99.90
39033;DHT22;24794;51.982;5.878;2024-03-23T06:13:33;6.80;99.90
39033;DHT22;24794;51.982;5.878;2024-03-23T06:14:35;6.70;99.90
39033;DHT22;24794;51.982;5.878;2024-03-23T06:15:35;6.70;99.90
39033;DHT22;24794;51.982;5.878;2024-03-23T06:16:38;6.70;99.90
39033;DHT22;24794;51.982;5.878;2024-03-23T06:17:39;6.70;99.90
39033;DHT22;24794;51.982;5.878;2024-03-23T06:18:39;6.70;99.90
39033;DHT22;24794;51.982;5.878;2024-03-23T06:19:40;6.70;99.90
39033;DHT22;24794;51.982;5.878;2024-03-23T06:20:41;6.70;99.90
39033;DHT22;24794;51.982;5.878;2024-03-23T06:21:44;6.70;99.90
39033;DHT22;24794;51.982;5.878;2024-03-23T06:22:45;6.70;99.90
39033;DHT22;24794;51.982;5.878;2024-03-23T06:23:46;6.70;99.90
39033;DHT22;24794;51.982;5.878;2024-03-23T06:24:52;6.70;99.90
39033;DHT22;24794;51.982;5.878;2024-03-23T06:25:53;6.70;99.90
39033;DHT22;24794;51.982;5.878;2024-03-23T06:26:54;6.70;99.90
39033;DHT22;24794;51.982;5.878;2024-03-23T06:27:54;6.70;99.90
39033;DHT22;24794;51.982;5.878;2024-03-23T06:28:55;6.70;99.90
39033;DHT22;24794;51.982;5.878;2024-03-23T06:29:56;6.80;99.90
39033;DHT22;24794;51.982;5.878;2024-03-23T06:30:57;6.80;99.90
39033;DHT22;24794;51.982;5.878;2024-03-23T06:31:58;6.80;99.90
39033;DHT22;24794;51.982;5.878;2024-03-23T06:32:58;6.80;99.90
39033;DHT22;24794;51.982;5.878;2024-03-23T06:33:59;6.80;99.90
39033;DHT22;24794;51.982;5.878;2024-03-23T06:34:59;6.80;99.90
39033;DHT22;24794;51.982;5.878;2024-03-23T06:36:00;6.90;99.90
39033;DHT22;24794;51.982;5.878;2024-03-23T06:37:00;6.90;99.90
39033;DHT22;24794;51.982;5.878;2024-03-23T06:38:01;6.90;99.90
39033;DHT22;24794;51.982;5.878;2024-03-23T06:39:02;6.90;99.90
39033;DHT22;24794;51.982;5.878;2024-03-23T06:40:02;6.90;99.90
39033;DHT22;24794;51.982;5.878;2024-03-23T06:41:05;7.00;99.90
39033;DHT22;24794;51.982;5.878;2024-03-23T06:42:06;7.00;99.90
39033;DHT22;24794;51.982;5.878;2024-03-23T06:43:06;7.00;99.90
39033;DHT22;24794;51.982;5.878;2024-03-23T06:44:07;7.10;99.90
39033;DHT22;24794;51.982;5.878;2024-03-23T06:45:07;7.10;99.90
39033;DHT22;24794;51.982;5.878;2024-03-23T06:46:08;7.10;99.90
39033;DHT22;24794;51.982;5.878;2024-03-23T06:47:09;7.20;99.90
39033;DHT22;24794;51.982;5.878;2024-03-23T06:48:09;7.20;99.90
39033;DHT22;24794;51.982;5.878;2024-03-23T06:49:10;7.30;99.90
39033;DHT22;24794;51.982;5.878;2024-03-23T06:50:11;7.30;99.90
39033;DHT22;24794;51.982;5.878;2024-03-23T06:51:11;7.30;99.90
39033;DHT22;24794;51.982;5.878;2024-03-23T06:52:12;7.40;99.90
39033;DHT22;24794;51.982;5.878;2024-03-23T06:53:13;7.40;99.90
39033;DHT22;24794;51.982;5.878;2024-03-23T06:54:14;7.50;99.90
39033;DHT22;24794;51.982;5.878;2024-03-23T06:55:15;7.50;99.90
39033;DHT22;24794;51.982;5.878;2024-03-23T06:56:15;7.50;99.90
39033;DHT22;24794;51.982;5.878;2024-03-23T06:57:16;7.50;99.90
39033;DHT22;24794;51.982;5.878;2024-03-23T06:58:16;7.50;99.90
39033;DHT22;24794;51.982;5.878;2024-03-23T06:59:17;7.50;99.90
39033;DHT22;24794;51.982;5.878;2024-03-23T07:00:18;7.60;99.90
39033;DHT22;24794;51.982;5.878;2024-03-23T07:01:19;7.60;99.90
39033;DHT22;24794;51.982;5.878;2024-03-23T07:02:19;7.50;99.90
39033;DHT22;24794;51.982;5.878;2024-03-23T07:03:20;7.60;99.90
39033;DHT22;24794;51.982;5.878;2024-03-23T07:04:22;7.60;99.90
39033;DHT22;24794;51.982;5.878;2024-03-23T07:05:22;7.60;99.90
39033;DHT22;24794;51.982;5.878;2024-03-23T07:06:23;7.70;99.90
39033;DHT22;24794;51.982;5.878;2024-03-23T07:07:23;7.70;99.90
39033;DHT22;24794;51.982;5.878;2024-03-23T07:08:24;7.70;99.90
39033;DHT22;24794;51.982;5.878;2024-03-23T07:09:24;7.70;99.90
39033;DHT22;24794;51.982;5.878;2024-03-23T07:10:26;7.70;99.90
39033;DHT22;24794;51.982;5.878;2024-03-23T07:11:26;7.80;99.90
39033;DHT22;24794;51.982;5.878;2024-03-23T07:12:27;7.80;99.90
39033;DHT22;24794;51.982;5.878;2024-03-23T07:13:28;7.80;99.90
39033;DHT22;24794;51.982;5.878;2024-03-23T07:14:29;7.80;99.90
39033;DHT22;24794;51.982;5.878;2024-03-23T07:15:29;7.80;99.90
39033;DHT22;24794;51.982;5.878;2024-03-23T07:16:30;7.90;99.90
39033;DHT22;24794;51.982;5.878;2024-03-23T07:17:30;7.90;99.90
39033;DHT22;24794;51.982;5.878;2024-03-23T07:18:33;7.90;99.90
39033;DHT22;24794;51.982;5.878;2024-03-23T07:19:34;7.90;99.90
39033;DHT22;24794;51.982;5.878;2024-03-23T07:20:35;7.90;99.90
39033;DHT22;24794;51.982;5.878;2024-03-23T07:21:36;7.80;99.90
39033;DHT22;24794;51.982;5.878;2024-03-23T07:22:37;7.80;99.90